Time;durP1;ratioP1;P1;durP2;ratioP2;P2;SDS_P1;SDS_P2;PMS_P1;PMS_P2;Temp;Humidity;BMP_temperature;BMP_pressure;BME280_temperature;BME280_humidity;BME280_pressure;Samples;Min_cycle;Max_cycle;Signal;HPM_P1;HPM_P2
2023/10/27 00:02:10;;;;;;;23.17;15.60;;;;;;;11.28;100.00;99115.78;5012313;28;20032;-60
2023/10/27 00:04:35;;;;;;;26.08;16.25;;;;;;;11.26;100.00;99114.06;5016836;28;20057;-60
2023/10/27 00:07:01;;;;;;;26.70;16.48;;;;;;;11.29;100.00;99121.94;5016784;28;20037;-60
2023/10/27 00:09:26;;;;;;;25.25;15.95;;;;;;;11.27;100.00;99127.28;5016785;28;20029;-60
2023/10/27 00:11:51;;;;;;;26.27;15.48;;;;;;;11.27;100.00;99126.41;5016724;28;20060;-60
2023/10/27 00:14:17;;;;;;;25.95;15.10;;;;;;;11.24;100.00;99121.16;5016928;28;20113;-60
2023/10/27 00:16:42;;;;;;;23.00;15.75;;;;;;;11.23;100.00;99103.56;5016573;28;20486;-60
2023/10/27 00:19:07;;;;;;;25.00;15.18;;;;;;;11.25;100.00;99112.31;5016714;28;20054;-60
2023/10/27 00:21:33;;;;;;;26.23;15.77;;;;;;;11.25;100.00;99109.69;5016506;28;20037;-60
2023/10/27 00:23:58;;;;;;;25.42;15.77;;;;;;;11.24;100.00;99110.59;5016388;28;20026;-60
2023/10/27 00:26:23;;;;;;;26.27;16.40;;;;;;;11.23;100.00;99111.50;5016653;28;20435;-60
2023/10/27 00:28:50;;;;;;;23.58;14.57;;;;;;;11.23;100.00;99112.38;5016509;28;20111;-60
2023/10/27 00:31:15;;;;;;;24.52;15.43;;;;;;;11.21;100.00;99105.34;4998855;28;20543;-60
2023/10/27 00:33:41;;;;;;;22.58;14.05;;;;;;;11.21;100.00;99103.59;5016328;28;20122;-60
2023/10/27 00:36:06;;;;;;;22.77;14.55;;;;;;;11.20;100.00;99101.84;5016239;28;20042;-60
2023/10/27 00:38:31;;;;;;;22.75;14.40;;;;;;;11.20;100.00;99104.50;5016292;28;20562;-60
2023/10/27 00:40:57;;;;;;;22.63;14.10;;;;;;;11.21;100.00;99093.00;5016411;28;20032;-60
2023/10/27 00:43:23;;;;;;;24.42;14.90;;;;;;;11.21;100.00;99089.50;5016113;28;20471;-60
2023/10/27 00:45:53;;;;;;;22.55;14.07;;;;;;;11.19;100.00;99080.75;5015979;28;20076;-60
2023/10/27 00:48:20;;;;;;;23.73;14.02;;;;;;;11.20;100.00;99088.63;5015862;28;20046;-60
2023/10/27 00:50:47;;;;;;;24.80;14.52;;;;;;;11.22;100.00;99086.84;5015984;28;20053;-60
2023/10/27 00:53:13;;;;;;;20.17;13.90;;;;;;;11.24;100.00;99090.31;5016001;28;20037;-61
2023/10/27 00:55:40;;;;;;;23.92;13.98;;;;;;;11.26;100.00;99092.91;5015995;28;20034;-60
2023/10/27 00:58:07;;;;;;;19.55;12.70;;;;;;;11.25;100.00;99083.25;5015890;28;20033;-60
2023/10/27 01:00:32;;;;;;;21.60;13.75;;;;;;;11.28;100.00;99091.13;5015859;28;20053;-61
2023/10/27 01:02:58;;;;;;;21.52;13.52;;;;;;;11.29;100.00;99091.09;5015644;28;20379;-61
2023/10/27 01:05:23;;;;;;;21.92;13.23;;;;;;;11.30;100.00;99089.31;5015769;28;20026;-61
2023/10/27 01:07:49;;;;;;;26.95;14.50;;;;;;;11.28;100.00;99086.69;5015910;28;20030;-61
2023/10/27 01:10:15;;;;;;;21.65;13.15;;;;;;;11.28;100.00;99084.06;5015974;28;20084;-61
2023/10/27 01:12:45;;;;;;;22.13;13.10;;;;;;;11.28;100.00;99084.06;5015685;28;20037;-61
2023/10/27 01:15:11;;;;;;;22.10;13.40;;;;;;;11.26;100.00;99095.56;5014855;28;20030;-61
2023/10/27 01:17:36;;;;;;;23.83;13.23;;;;;;;11.26;100.00;99090.28;5015273;28;20084;-61
2023/10/27 01:20:02;;;;;;;18.88;13.48;;;;;;;11.19;100.00;99071.03;5015454;28;20018;-61
2023/10/27 01:22:27;;;;;;;23.83;12.60;;;;;;;11.26;100.00;99087.63;5015627;28;20033;-61
2023/10/27 01:24:55;;;;;;;21.10;12.13;;;;;;;11.25;100.00;99084.13;5015276;28;20168;-61
2023/10/27 01:27:21;;;;;;;21.17;12.48;;;;;;;11.24;100.00;99074.44;5015636;28;20022;-61
2023/10/27 01:29:46;;;;;;;23.63;12.43;;;;;;;11.27;100.00;99081.47;5015368;28;20030;-61
2023/10/27 01:32:11;;;;;;;22.30;12.43;;;;;;;11.23;100.00;99078.00;5015233;28;20068;-61
2023/10/27 01:34:37;;;;;;;21.42;12.20;;;;;;;11.25;100.00;99084.13;5015261;28;20400;-60
2023/10/27 01:37:02;;;;;;;19.63;11.48;;;;;;;11.24;100.00;99089.44;5015181;28;20113;-61
2023/10/27 01:39:28;;;;;;;19.73;11.50;;;;;;;11.21;100.00;99079.78;4997866;28;20030;-61
2023/10/27 01:41:53;;;;;;;21.45;11.93;;;;;;;11.20;100.00;99079.84;5015356;28;20029;-61
2023/10/27 01:44:18;;;;;;;21.38;11.48;;;;;;;11.17;100.00;99074.59;5015114;28;20462;-61
2023/10/27 01:46:44;;;;;;;20.77;11.45;;;;;;;11.16;100.00;99075.50;5014756;28;20041;-61
2023/10/27 01:49:09;;;;;;;20.63;11.70;;;;;;;11.11;100.00;99072.09;5014704;28;20515;-61
2023/10/27 01:51:34;;;;;;;18.25;11.38;;;;;;;11.12;100.00;99068.53;5014906;28;20036;-61
2023/10/27 01:54:00;;;;;;;20.55;11.50;;;;;;;11.11;100.00;99072.09;5014893;28;20037;-61
2023/10/27 01:56:25;;;;;;;24.90;12.15;;;;;;;11.09;100.00;99072.13;5014757;28;20030;-61
2023/10/27 01:58:51;;;;;;;21.60;11.57;;;;;;;11.08;100.00;99056.28;5014702;28;20121;-60
2023/10/27 02:01:17;;;;;;;20.88;11.43;;;;;;;11.09;100.00;99061.56;5014644;28;20065;-61
2023/10/27 02:03:43;;;;;;;20.00;11.27;;;;;;;11.11;100.00;99065.03;5014459;28;20510;-61
2023/10/27 02:06:08;;;;;;;20.25;11.20;;;;;;;11.12;100.00;99061.47;5014566;28;20030;-61
2023/10/27 02:08:38;;;;;;;22.40;11.65;;;;;;;11.09;100.00;99068.59;5014614;28;20128;-61
2023/10/27 02:11:04;;;;;;;20.83;11.07;;;;;;;11.06;100.00;99058.09;5014796;28;20073;-61
2023/10/27 02:13:29;;;;;;;20.98;11.13;;;;;;;11.06;100.00;99058.09;5014388;28;20514;-61
2023/10/27 02:15:55;;;;;;;19.80;10.95;;;;;;;11.08;100.00;99059.78;5013365;28;20030;-61
2023/10/27 02:18:20;;;;;;;20.40;11.02;;;;;;;11.08;100.00;99057.16;5014289;28;20110;-61
2023/10/27 02:20:49;;;;;;;24.70;11.10;;;;;;;11.07;100.00;99052.78;5014260;28;20050;-60
2023/10/27 02:23:17;;;;;;;22.38;11.60;;;;;;;11.09;100.00;99039.50;5014193;28;20120;-60
2023/10/27 02:25:43;;;;;;;21.02;10.63;;;;;;;11.07;100.00;99051.91;5013400;28;20033;-60
2023/10/27 02:28:08;;;;;;;20.58;11.18;;;;;;;11.08;100.00;99037.78;5014206;28;20032;-61
2023/10/27 02:30:33;;;;;;;18.00;10.43;;;;;;;11.06;100.00;99039.59;5014128;28;20040;-61
2023/10/27 02:32:59;;;;;;;19.88;10.60;;;;;;;11.08;100.00;99040.41;5014203;28;20029;-60
2023/10/27 02:35:25;;;;;;;18.77;9.65;;;;;;;11.08;100.00;99040.41;5014111;28;20175;-61
2023/10/27 02:37:52;;;;;;;19.05;10.10;;;;;;;11.05;100.00;99038.72;5014105;28;20124;-61
2023/10/27 02:40:17;;;;;;;20.63;10.68;;;;;;;11.01;100.00;99040.56;5014212;28;20080;-61
2023/10/27 02:42:42;;;;;;;20.98;10.18;;;;;;;10.99;100.00;99033.53;5013871;28;20098;-61
2023/10/27 02:45:08;;;;;;;17.85;9.80;;;;;;;10.98;100.00;99034.47;5013872;28;20105;-61
2023/10/27 02:47:33;;;;;;;17.90;9.50;;;;;;;11.00;100.00;99030.88;5013542;28;20069;-61
2023/10/27 02:50:00;;;;;;;22.08;9.80;;;;;;;10.98;100.00;99030.03;5013851;28;20479;-61
2023/10/27 02:52:25;;;;;;;18.40;10.07;;;;;;;10.99;100.00;99029.13;5013868;28;20479;-61
2023/10/27 02:54:51;;;;;;;18.85;9.18;;;;;;;11.00;100.00;99025.56;5013737;28;20080;-60
2023/10/27 02:57:16;;;;;;;18.63;8.95;;;;;;;11.05;100.00;99030.81;5013702;28;20026;-61
2023/10/27 02:59:41;;;;;;;15.38;8.82;;;;;;;11.09;100.00;99029.84;5013664;28;20034;-61
2023/10/27 03:02:07;;;;;;;20.83;8.75;;;;;;;11.08;100.00;99024.56;5013482;28;20505;-60
2023/10/27 03:04:32;;;;;;;19.63;9.30;;;;;;;11.09;100.00;99021.91;5013780;28;20034;-61
2023/10/27 03:06:57;;;;;;;17.60;8.50;;;;;;;11.09;100.00;99024.56;5013687;28;20041;-61
2023/10/27 03:09:23;;;;;;;17.48;8.75;;;;;;;11.08;100.00;99021.91;5013543;28;20026;-61
2023/10/27 03:11:48;;;;;;;19.88;9.05;;;;;;;11.08;100.00;99027.22;5013398;28;20392;-61
2023/10/27 03:14:15;;;;;;;14.50;8.60;;;;;;;11.09;100.00;99018.38;5013504;28;20168;-61
2023/10/27 03:16:41;;;;;;;18.48;8.23;;;;;;;11.08;100.00;99021.91;5013396;28;20037;-61
2023/10/27 03:19:06;;;;;;;16.38;8.32;;;;;;;11.12;100.00;99023.59;5013337;28;20063;-61
2023/10/27 03:21:31;;;;;;;21.40;8.65;;;;;;;11.14;100.00;99020.03;5013353;28;20058;-61
2023/10/27 03:23:57;;;;;;;14.98;7.85;;;;;;;11.17;100.00;99025.22;5013358;28;20037;-61
2023/10/27 03:26:22;;;;;;;14.52;8.20;;;;;;;11.19;100.00;99018.16;5013287;28;20034;-61
2023/10/27 03:28:48;;;;;;;19.20;8.10;;;;;;;11.20;100.00;99017.25;5012014;28;20048;-60
2023/10/27 03:31:13;;;;;;;16.20;7.97;;;;;;;11.20;100.00;99014.59;5013222;28;20096;-61
2023/10/27 03:33:39;;;;;;;15.15;8.10;;;;;;;11.23;100.00;99021.59;5013210;28;20033;-61
2023/10/27 03:36:05;;;;;;;13.50;8.15;;;;;;;11.25;100.00;99014.50;5013389;28;20033;-61
2023/10/27 03:38:30;;;;;;;15.70;8.00;;;;;;;11.25;100.00;99010.06;5012937;28;20030;-61
2023/10/27 03:40:56;;;;;;;13.68;7.32;;;;;;;11.26;100.00;99008.31;5013301;28;20096;-61
2023/10/27 03:43:21;;;;;;;11.90;7.32;;;;;;;11.22;100.00;99007.53;5013072;28;20030;-60
2023/10/27 03:45:47;;;;;;;14.35;7.22;;;;;;;11.22;100.00;99004.88;5013073;28;20022;-61
2023/10/27 03:48:14;;;;;;;14.73;7.30;;;;;;;11.25;100.00;99009.22;5012551;28;20104;-61
2023/10/27 03:50:39;;;;;;;19.70;8.30;;;;;;;11.23;100.00;99019.84;5013288;28;20129;-61
2023/10/27 03:53:05;;;;;;;12.52;7.18;;;;;;;11.24;100.00;99004.84;5013226;28;20026;-61
2023/10/27 03:55:30;;;;;;;14.40;7.85;;;;;;;11.21;100.00;99013.69;5013046;28;20104;-61
2023/10/27 03:58:12;;;;;;;17.83;7.50;;;;;;;11.22;100.00;99017.19;5013106;28;20057;-61
2023/10/27 04:00:37;;;;;;;17.65;7.97;;;;;;;11.23;100.00;99014.53;5012938;28;20034;-61
2023/10/27 04:03:02;;;;;;;14.00;7.35;;;;;;;11.26;100.00;99008.31;5012697;28;20113;-61
2023/10/27 04:05:28;;;;;;;16.00;7.15;;;;;;;11.25;100.00;98994.22;5012803;28;20037;-61
2023/10/27 04:07:53;;;;;;;14.55;7.13;;;;;;;11.26;100.00;99006.56;5012710;28;20137;-61
2023/10/27 04:10:18;;;;;;;13.35;6.32;;;;;;;11.28;100.00;99002.09;5012705;28;20053;-61
2023/10/27 04:12:44;;;;;;;17.77;7.32;;;;;;;11.27;100.00;99004.78;5012739;28;20026;-61
2023/10/27 04:15:10;;;;;;;16.38;7.10;;;;;;;11.27;100.00;98999.50;5012842;28;20542;-61
2023/10/27 04:17:36;;;;;;;15.13;6.68;;;;;;;11.30;100.00;99002.03;5012465;28;20022;-61
2023/10/27 04:20:03;;;;;;;19.17;7.40;;;;;;;11.31;100.00;99002.94;5013109;28;20080;-61
2023/10/27 04:22:29;;;;;;;14.63;6.88;;;;;;;11.28;100.00;99007.38;5012744;28;20032;-61
2023/10/27 04:24:54;;;;;;;12.93;6.70;;;;;;;11.23;100.00;99006.63;5012796;28;20034;-61
2023/10/27 04:27:19;;;;;;;16.92;6.82;;;;;;;11.21;100.00;99012.81;5013091;28;20045;-61
2023/10/27 04:29:46;;;;;;;13.60;6.68;;;;;;;11.22;100.00;99001.34;5013022;28;20030;-60
2023/10/27 04:32:15;;;;;;;14.23;6.78;;;;;;;11.21;100.00;99015.47;5012884;28;20026;-60
2023/10/27 04:34:42;;;;;;;14.07;6.80;;;;;;;11.20;100.00;99011.97;5012986;28;20366;-61
2023/10/27 04:37:08;;;;;;;13.75;6.47;;;;;;;11.21;100.00;99008.41;5012851;28;20041;-61
2023/10/27 04:39:33;;;;;;;13.50;6.18;;;;;;;11.26;100.00;99000.38;5012955;28;20026;-61
2023/10/27 04:41:58;;;;;;;12.18;6.38;;;;;;;11.25;100.00;99006.56;5012604;28;20452;-61
2023/10/27 04:44:25;;;;;;;13.00;6.30;;;;;;;11.24;100.00;99007.47;5012424;28;20041;-61
2023/10/27 04:46:51;;;;;;;11.90;6.60;;;;;;;11.23;100.00;99021.59;5012293;28;20491;-61
2023/10/27 04:49:17;;;;;;;15.57;7.07;;;;;;;11.18;100.00;99016.44;5013231;28;20132;-61
2023/10/27 04:51:42;;;;;;;12.55;6.35;;;;;;;11.19;100.00;99004.06;5016155;28;20459;-61
2023/10/27 04:54:08;;;;;;;11.32;6.35;;;;;;;11.23;100.00;99005.75;5016101;28;20029;-61
2023/10/27 04:56:33;;;;;;;14.10;6.30;;;;;;;11.24;100.00;99004.84;5016056;28;20115;-61
2023/10/27 04:58:59;;;;;;;14.18;6.88;;;;;;;11.24;100.00;99000.41;5015969;28;20033;-61
2023/10/27 05:01:25;;;;;;;14.32;6.95;;;;;;;11.23;100.00;99009.25;5016002;28;20553;-61
2023/10/27 05:03:51;;;;;;;12.63;6.10;;;;;;;11.23;100.00;99005.75;5015944;28;20120;-61
2023/10/27 05:06:17;;;;;;;13.65;6.10;;;;;;;11.23;100.00;98993.41;5015775;28;20053;-60
2023/10/27 05:08:42;;;;;;;17.30;6.63;;;;;;;11.24;100.00;99000.41;4998183;28;20443;-61
2023/10/27 05:11:08;;;;;;;13.45;6.90;;;;;;;11.25;100.00;98999.50;5015715;28;20438;-61
2023/10/27 05:13:33;;;;;;;12.80;6.50;;;;;;;11.25;100.00;98998.63;5015895;28;20026;-61
2023/10/27 05:15:59;;;;;;;11.80;6.32;;;;;;;11.23;100.00;98996.03;4997971;28;20030;-61
2023/10/27 05:18:25;;;;;;;10.98;5.65;;;;;;;11.23;100.00;98996.03;5015531;28;20415;-61
2023/10/27 05:20:50;;;;;;;11.07;5.95;;;;;;;11.21;100.00;98991.69;5015492;28;20498;-61
2023/10/27 05:23:16;;;;;;;12.27;6.25;;;;;;;11.17;100.00;98985.56;5015378;28;20522;-61
2023/10/27 05:25:43;;;;;;;14.50;7.93;;;;;;;11.15;100.00;98986.53;5015399;28;20049;-60
2023/10/27 05:28:08;;;;;;;11.40;6.90;;;;;;;11.12;100.00;98989.22;5015369;28;20472;-61
2023/10/27 05:30:35;;;;;;;11.02;6.68;;;;;;;11.09;100.00;98990.19;5015515;28;20041;-61
2023/10/27 05:33:00;;;;;;;11.90;6.30;;;;;;;11.12;100.00;98989.22;5015418;28;20033;-61
2023/10/27 05:35:26;;;;;;;11.15;6.10;;;;;;;11.11;100.00;98979.56;5015272;28;20030;-60
2023/10/27 05:37:51;;;;;;;14.48;7.13;;;;;;;11.12;100.00;98981.31;5015241;28;20029;-61
2023/10/27 05:40:16;;;;;;;12.38;6.32;;;;;;;11.07;100.00;98984.03;5015202;28;20026;-61
2023/10/27 05:42:42;;;;;;;9.82;6.47;;;;;;;11.07;100.00;98980.53;5015314;28;20045;-61
2023/10/27 05:45:08;;;;;;;11.73;6.45;;;;;;;11.04;100.00;98979.69;5013891;28;20060;-61
2023/10/27 05:47:33;;;;;;;10.60;6.63;;;;;;;11.00;100.00;98980.66;5014700;28;20050;-61
2023/10/27 05:49:59;;;;;;;11.38;6.40;;;;;;;11.00;100.00;98977.13;5015155;28;20108;-61
2023/10/27 05:52:24;;;;;;;14.73;6.82;;;;;;;10.97;100.00;98979.88;5014940;28;20430;-61
2023/10/27 05:54:50;;;;;;;13.85;7.57;;;;;;;10.97;100.00;98985.16;5015037;28;20034;-60
2023/10/27 05:57:15;;;;;;;14.45;9.30;;;;;;;10.94;100.00;98978.16;5014911;28;20037;-61
2023/10/27 05:59:40;;;;;;;10.30;6.40;;;;;;;10.95;100.00;98984.28;5014640;28;20062;-61
2023/10/27 06:02:06;;;;;;;14.48;6.80;;;;;;;10.94;100.00;98980.78;5014632;28;20506;-61
2023/10/27 06:04:34;;;;;;;13.65;6.50;;;;;;;10.94;100.00;98982.56;5014554;28;20390;-61
2023/10/27 06:06:59;;;;;;;11.68;6.68;;;;;;;10.98;100.00;98978.97;5014589;28;20030;-61
2023/10/27 06:09:27;;;;;;;12.25;6.80;;;;;;;11.00;100.00;98980.66;5014616;28;20032;-61
2023/10/27 06:11:53;;;;;;;13.40;6.93;;;;;;;11.01;100.00;98981.53;5014797;28;20025;-61
2023/10/27 06:14:20;;;;;;;9.93;7.20;;;;;;;11.01;100.00;98990.34;5014560;28;20073;-61
2023/10/27 06:16:46;;;;;;;13.80;6.97;;;;;;;11.04;100.00;98992.91;5013320;28;20021;-61
2023/10/27 06:19:11;;;;;;;10.77;6.57;;;;;;;11.03;100.00;98985.00;5014210;28;20452;-61
2023/10/27 06:21:36;;;;;;;13.70;7.25;;;;;;;11.03;100.00;98985.00;5014660;28;20037;-61
2023/10/27 06:24:03;;;;;;;12.63;7.40;;;;;;;10.99;100.00;98986.84;5014267;28;20129;-61
2023/10/27 06:26:28;;;;;;;11.88;6.53;;;;;;;10.99;100.00;98978.91;5014326;28;20026;-60
2023/10/27 06:28:54;;;;;;;12.35;6.28;;;;;;;10.98;100.00;98977.19;5014331;28;20099;-60
2023/10/27 06:31:20;;;;;;;10.10;6.38;;;;;;;10.96;100.00;98981.66;5014076;28;20034;-61
2023/10/27 06:33:45;;;;;;;11.25;6.32;;;;;;;11.00;100.00;98983.28;5014416;28;20533;-60
2023/10/27 06:36:10;;;;;;;10.13;5.85;;;;;;;11.05;100.00;98991.16;5014174;28;20021;-61
2023/10/27 06:38:36;;;;;;;11.60;6.70;;;;;;;11.00;100.00;98998.28;5012843;28;20444;-60
2023/10/27 06:41:01;;;;;;;12.73;6.40;;;;;;;10.98;100.00;99000.09;5014012;28;20148;-61
2023/10/27 06:43:27;;;;;;;13.70;6.70;;;;;;;10.99;100.00;99004.47;5013974;28;20057;-61
2023/10/27 06:45:52;;;;;;;9.30;6.03;;;;;;;10.96;100.00;98993.97;5014094;28;20387;-61
2023/10/27 06:48:17;;;;;;;11.50;6.25;;;;;;;10.99;100.00;99002.69;5013713;28;20057;-61
2023/10/27 06:50:43;;;;;;;13.18;6.43;;;;;;;11.04;100.00;98999.97;4996390;28;20130;-61
2023/10/27 06:53:09;;;;;;;10.00;6.13;;;;;;;11.08;100.00;99011.34;5013946;28;20502;-61
2023/10/27 06:55:34;;;;;;;11.70;6.80;;;;;;;11.11;100.00;99011.28;5013858;28;20022;-61
2023/10/27 06:58:00;;;;;;;9.52;6.32;;;;;;;11.15;100.00;99007.69;5013668;28;20026;-61
2023/10/27 07:00:25;;;;;;;10.73;6.18;;;;;;;11.16;100.00;99010.28;5013530;28;20410;-62
2023/10/27 07:02:51;;;;;;;10.20;6.07;;;;;;;11.19;100.00;99020.81;5013510;28;20088;-61
2023/10/27 07:05:17;;;;;;;10.23;5.55;;;;;;;11.21;100.00;99015.47;5013212;28;20022;-62
2023/10/27 07:10:18;;;;;;;9.27;5.90;;;;;;;11.17;100.00;99013.78;5080484;22;20058;-65
2023/10/27 07:12:43;;;;;;;9.65;5.68;;;;;;;11.11;100.00;99014.81;5031768;28;20025;-65
2023/10/27 07:15:09;;;;;;;8.02;5.57;;;;;;;11.13;100.00;99020.91;5033311;28;20111;-65
2023/10/27 07:17:35;;;;;;;8.95;5.75;;;;;;;11.15;100.00;99029.69;5033285;28;20056;-65
2023/10/27 07:20:00;;;;;;;9.20;5.75;;;;;;;11.19;100.00;99030.50;5033192;28;20470;-65
2023/10/27 07:22:32;;;;;;;8.48;6.07;;;;;;;11.20;100.00;99030.47;5031973;28;20091;-65
2023/10/27 07:36:56;;;;;;;9.85;5.80;;;;;;;11.26;100.00;99040.03;5055544;22;20045;-65
2023/10/27 07:39:22;;;;;;;7.43;5.55;;;;;;;11.28;100.00;99036.47;5032976;28;20028;-64
2023/10/27 07:41:50;;;;;;;6.50;4.93;;;;;;;11.29;100.00;99032.03;5032880;28;20048;-64
2023/10/27 07:44:15;;;;;;;6.55;5.22;;;;;;;11.29;100.00;99039.97;5032795;28;20029;-65
2023/10/27 07:46:40;;;;;;;8.82;5.28;;;;;;;11.27;100.00;99040.03;5032746;28;20079;-65
2023/10/27 07:49:06;;;;;;;7.50;5.05;;;;;;;11.32;100.00;99047.84;5032837;28;20095;-65
2023/10/27 07:51:32;;;;;;;7.30;5.25;;;;;;;11.34;100.00;99043.38;5031844;28;20068;-65
2023/10/27 07:53:57;;;;;;;6.78;5.57;;;;;;;11.37;100.00;99050.41;5032723;28;20052;-65
2023/10/27 07:56:23;;;;;;;8.25;5.63;;;;;;;11.33;100.00;99046.06;5032969;28;20103;-64
2023/10/27 07:58:48;;;;;;;6.13;5.00;;;;;;;11.38;100.00;99055.63;5032656;28;20036;-64
2023/10/27 08:01:15;;;;;;;6.53;4.95;;;;;;;11.41;100.00;99058.22;5032565;28;20048;-65
2023/10/27 08:03:41;;;;;;;6.65;5.05;;;;;;;11.39;100.00;99060.06;5032324;28;20033;-65
2023/10/27 08:06:08;;;;;;;6.53;5.22;;;;;;;11.38;100.00;99060.06;5032956;28;20018;-65
2023/10/27 08:08:34;;;;;;;7.43;4.70;;;;;;;11.40;100.00;99063.56;5032971;28;20028;-65
2023/10/27 08:10:59;;;;;;;8.23;4.82;;;;;;;11.41;100.00;99060.88;5032821;28;20378;-65
2023/10/27 08:13:25;;;;;;;7.75;4.80;;;;;;;11.44;100.00;99065.25;5032658;28;20108;-65
2023/10/27 08:15:51;;;;;;;7.43;4.80;;;;;;;11.48;100.00;99066.91;5032945;28;20378;-65
2023/10/27 08:18:16;;;;;;;6.82;5.05;;;;;;;11.51;100.00;99072.13;5031237;28;20079;-65
2023/10/27 08:20:42;;;;;;;6.72;5.10;;;;;;;11.54;100.00;99056.19;5032895;28;20034;-65
2023/10/27 08:23:09;;;;;;;8.27;5.00;;;;;;;11.57;100.00;99052.63;5033281;28;20540;-65
2023/10/27 08:25:35;;;;;;;7.95;4.63;;;;;;;11.61;100.00;99054.28;5036382;28;20382;-65
2023/10/27 08:28:00;;;;;;;7.13;4.80;;;;;;;11.62;100.00;99050.75;5036401;28;20505;-65
2023/10/27 08:30:25;;;;;;;7.13;4.82;;;;;;;11.63;100.00;99060.41;5036219;28;20044;-65
2023/10/27 08:32:52;;;;;;;7.68;5.50;;;;;;;11.64;100.00;99072.72;5035869;28;20427;-65
2023/10/27 08:35:18;;;;;;;7.47;4.93;;;;;;;11.64;100.00;99073.59;5035873;28;20104;-65
2023/10/27 08:37:44;;;;;;;7.10;5.38;;;;;;;11.62;100.00;99082.47;5036236;28;20033;-64
2023/10/27 08:40:11;;;;;;;5.43;4.53;;;;;;;11.59;100.00;99087.84;5035564;28;20041;-65
2023/10/27 08:42:38;;;;;;;6.05;4.75;;;;;;;11.56;100.00;99090.53;5035910;28;20026;-65
2023/10/27 08:45:05;;;;;;;6.38;4.85;;;;;;;11.56;100.00;99093.19;5036134;28;20025;-65
2023/10/27 08:47:33;;;;;;;5.72;4.60;;;;;;;11.56;100.00;99098.47;5035855;28;20029;-65
2023/10/27 08:50:04;;;;;;;5.63;3.95;;;;;;;11.58;100.00;99094.03;5035861;28;20040;-65
2023/10/27 08:52:31;;;;;;;6.13;4.83;;;;;;;11.60;100.00;99097.50;5036182;28;20045;-63
2023/10/27 08:55:01;;;;;;;8.15;4.88;;;;;;;11.58;100.00;99088.75;5036095;28;20033;-64
2023/10/27 08:57:26;;;;;;;6.60;4.72;;;;;;;11.60;100.00;99087.78;5035597;28;20040;-64
2023/10/27 08:59:52;;;;;;;8.32;5.18;;;;;;;11.59;100.00;99094.00;5035725;28;20075;-64
2023/10/27 09:02:33;;;;;;;6.30;5.20;;;;;;;11.62;100.00;99098.34;5035188;28;20064;-64
2023/10/27 09:05:04;;;;;;;5.72;4.80;;;;;;;11.58;100.00;99092.25;5035879;28;20034;-64
2023/10/27 09:07:33;;;;;;;6.25;5.05;;;;;;;11.60;100.00;99094.84;5035893;28;20120;-64
2023/10/27 09:09:59;;;;;;;6.05;5.03;;;;;;;11.58;100.00;99096.69;5035433;28;20029;-64
2023/10/27 09:12:30;;;;;;;5.68;4.72;;;;;;;11.57;100.00;99095.81;5034264;28;20033;-64
2023/10/27 09:15:06;;;;;;;9.48;5.07;;;;;;;11.54;100.00;99093.22;5035769;28;20036;-64
2023/10/27 09:17:51;;;;;;;6.90;5.45;;;;;;;11.60;100.00;99110.72;5035628;28;20025;-64
2023/10/27 09:20:18;;;;;;;6.65;4.80;;;;;;;11.60;100.00;99108.09;5035576;28;20371;-63
2023/10/27 09:23:01;;;;;;;7.35;5.40;;;;;;;11.62;100.00;99111.59;5035328;28;20108;-65
2023/10/27 09:25:31;;;;;;;8.38;5.20;;;;;;;11.65;100.00;99111.50;5035151;28;20028;-65
2023/10/27 09:28:02;;;;;;;7.70;5.82;;;;;;;11.66;100.00;99106.19;5035474;28;20032;-64
2023/10/27 09:30:33;;;;;;;6.68;5.40;;;;;;;11.68;100.00;99103.50;5035476;28;20022;-64
2023/10/27 09:33:13;;;;;;;7.28;5.68;;;;;;;11.70;100.00;99089.34;5035083;28;20191;-64
2023/10/27 09:35:39;;;;;;;6.65;5.15;;;;;;;11.72;100.00;99102.53;5034237;28;20042;-66
2023/10/27 09:38:04;;;;;;;6.82;5.40;;;;;;;11.76;100.00;99107.72;5035023;28;20079;-64
2023/10/27 09:40:30;;;;;;;6.03;4.85;;;;;;;11.79;100.00;99106.78;5034918;28;20030;-65
2023/10/27 09:42:58;;;;;;;7.32;5.30;;;;;;;11.84;100.00;99110.25;5035135;28;20021;-64
2023/10/27 09:45:27;;;;;;;10.30;7.55;;;;;;;11.83;100.00;99100.56;5034503;28;20025;-64
2023/10/27 09:48:02;;;;;;;7.60;5.72;;;;;;;11.84;100.00;99091.72;5033449;28;20033;-64
2023/10/27 09:50:28;;;;;;;7.65;6.07;;;;;;;11.87;100.00;99098.72;5035034;28;20108;-64
2023/10/27 09:52:58;;;;;;;6.63;5.93;;;;;;;11.89;100.00;99102.19;5034998;28;20053;-65
2023/10/27 09:55:24;;;;;;;7.93;6.38;;;;;;;11.94;100.00;99108.25;5034766;28;20029;-64
2023/10/27 09:57:51;;;;;;;7.50;6.00;;;;;;;11.94;100.00;99102.94;5034693;28;20540;-65
2023/10/27 10:00:20;;;;;;;9.48;6.93;;;;;;;11.99;100.00;99107.25;5034749;28;20029;-64
2023/10/27 10:02:47;;;;;;;9.80;7.15;;;;;;;12.02;100.00;99101.88;5034367;28;20078;-64
2023/10/27 10:05:12;;;;;;;8.65;6.30;;;;;;;12.07;100.00;99095.59;5034562;28;20111;-65
2023/10/27 10:07:44;;;;;;;7.40;6.07;;;;;;;12.11;100.00;99102.56;5034602;28;20077;-64
2023/10/27 10:10:18;;;;;;;8.07;6.10;;;;;;;12.09;100.00;99099.09;5034866;28;20025;-64
2023/10/27 10:12:59;;;;;;;8.38;6.75;;;;;;;12.00;100.00;99100.19;5034665;28;20614;-64
2023/10/27 10:15:29;;;;;;;9.18;6.13;;;;;;;11.99;100.00;99109.91;5034464;28;20040;-65
2023/10/27 10:17:55;;;;;;;7.90;5.70;;;;;;;12.00;100.00;99113.41;5034407;28;20076;-65
2023/10/27 10:20:57;;;;;;;9.05;6.00;;;;;;;11.98;100.00;99120.50;5034306;28;20029;-64
2023/10/27 10:23:25;;;;;;;6.60;5.30;;;;;;;11.94;100.00;99129.41;5002381;28;20045;-64
2023/10/27 10:25:57;;;;;;;7.57;5.40;;;;;;;11.88;100.00;99132.22;5034224;28;20502;-64
2023/10/27 10:28:33;;;;;;;8.80;5.60;;;;;;;11.87;100.00;99133.13;5032823;28;20036;-64
2023/10/27 10:31:08;;;;;;;7.40;5.43;;;;;;;11.81;100.00;99130.56;5034054;28;20041;-65
2023/10/27 10:33:34;;;;;;;7.95;5.03;;;;;;;11.71;100.00;99122.84;5033899;28;20040;-64
2023/10/27 10:36:22;;;;;;;7.47;4.70;;;;;;;11.65;100.00;99128.28;5033681;28;20132;-64
2023/10/27 10:38:55;;;;;;;8.60;4.78;;;;;;;11.64;100.00;99137.09;5024350;28;20045;-64
2023/10/27 10:41:20;;;;;;;;;;;;;;;11.69;100.00;99129.94;5034239;28;20048;-64
2023/10/27 10:44:13;;;;;;;7.03;4.82;;;;;;;11.68;100.00;99135.25;5033995;28;19917;-64
2023/10/27 10:46:39;;;;;;;9.77;5.70;;;;;;;11.65;100.00;99130.91;5033020;28;20112;-64
2023/10/27 10:49:05;;;;;;;9.15;5.88;;;;;;;11.64;100.00;99126.50;5032355;28;20104;-64
2023/10/27 10:51:36;;;;;;;10.00;6.72;;;;;;;11.64;100.00;99129.16;5033582;28;20022;-64
2023/10/27 10:54:02;;;;;;;11.18;7.65;;;;;;;11.63;100.00;99118.59;5032420;28;20025;-64
2023/10/27 10:56:28;;;;;;;11.68;6.97;;;;;;;11.62;100.00;99120.38;5033605;28;20159;-64
2023/10/27 10:58:54;;;;;;;12.20;7.22;;;;;;;11.66;100.00;99118.56;5033803;28;20104;-65
2023/10/27 11:01:21;;;;;;;11.52;7.72;;;;;;;11.70;100.00;99121.09;5033434;28;20029;-65
2023/10/27 11:03:52;;;;;;;12.85;8.40;;;;;;;11.68;100.00;99122.88;5033287;28;20048;-64
2023/10/27 11:06:22;;;;;;;15.20;10.02;;;;;;;11.68;100.00;99122.88;5033469;28;20017;-64
2023/10/27 11:08:48;;;;;;;14.77;9.73;;;;;;;11.68;100.00;99119.38;5033337;28;20028;-64
2023/10/27 11:11:14;;;;;;;13.98;10.25;;;;;;;11.67;100.00;99126.44;5033657;28;20030;-65
2023/10/27 11:13:43;;;;;;;17.48;9.85;;;;;;;11.69;100.00;99115.81;5031575;28;20031;-65
2023/10/27 11:16:19;;;;;;;17.00;9.88;;;;;;;11.72;100.00;99121.06;5032924;28;20544;-63
2023/10/27 11:18:46;;;;;;;14.18;9.75;;;;;;;11.76;100.00;99113.00;5032858;28;20083;-63
2023/10/27 11:21:19;;;;;;;15.65;10.20;;;;;;;11.84;100.00;99109.38;5033089;28;20058;-64
2023/10/27 11:23:46;;;;;;;19.05;10.02;;;;;;;11.90;100.00;99111.88;5031665;28;20026;-63
2023/10/27 11:26:11;;;;;;;16.23;9.80;;;;;;;11.95;100.00;99115.31;5033273;28;20026;-63
2023/10/27 11:28:45;;;;;;;16.15;10.10;;;;;;;11.99;100.00;99120.50;5032969;28;20386;-64
2023/10/27 11:31:13;;;;;;;14.70;9.45;;;;;;;12.03;100.00;99123.91;5033014;28;20084;-63